Time;durP1;ratioP1;P1;durP2;ratioP2;P2;SDS_P1;SDS_P2;PMS_P1;PMS_P2;Temp;Humidity;BMP_temperature;BMP_pressure;BME280_temperature;BME280_humidity;BME280_pressure;Samples;Min_cycle;Max_cycle;Signal;HPM_P1;HPM_P2
2021/10/22 00:00:18;;;;;;;10.65;1.65;;;;;;;4.86;100.00;100520.81;5050191;28;20045;-72
2021/10/22 00:02:44;;;;;;;16.05;2.00;;;;;;;4.83;100.00;100515.84;5066674;28;20558;-72
2021/10/22 00:05:10;;;;;;;17.08;2.00;;;;;;;4.84;100.00;100525.28;5065807;28;20769;-72
2021/10/22 00:07:38;;;;;;;18.20;2.17;;;;;;;4.89;100.00;100523.16;5047106;28;20040;-72
2021/10/22 00:10:05;;;;;;;19.48;2.35;;;;;;;4.91;100.00;100525.66;5049144;28;20032;-72
2021/10/22 00:12:31;;;;;;;20.25;2.58;;;;;;;4.96;100.00;100539.97;5049234;28;20086;-72
2021/10/22 00:14:56;;;;;;;15.38;1.88;;;;;;;4.97;100.00;100539.03;5073715;28;20037;-73
2021/10/22 00:17:23;;;;;;;21.13;2.53;;;;;;;5.06;100.00;100529.69;5049693;28;20036;-72
2021/10/22 00:19:51;;;;;;;15.90;2.40;;;;;;;5.15;100.00;100535.97;5065184;28;20039;-72
2021/10/22 00:22:16;;;;;;;18.02;2.38;;;;;;;5.15;100.00;100530.78;5065687;28;20119;-72
2021/10/22 00:24:41;;;;;;;13.25;2.20;;;;;;;5.17;100.00;100541.91;5046575;28;20154;-72
2021/10/22 00:27:07;;;;;;;16.17;2.40;;;;;;;5.23;100.00;100549.22;5062363;28;20040;-72
2021/10/22 00:29:34;;;;;;;19.00;2.13;;;;;;;5.24;100.00;100549.13;5079141;28;20048;-73
2021/10/22 00:31:59;;;;;;;20.25;2.50;;;;;;;5.26;100.00;100534.22;5065725;28;20028;-72
2021/10/22 00:34:28;;;;;;;27.77;2.97;;;;;;;5.26;100.00;100543.78;5054938;28;20049;-73
2021/10/22 00:36:54;;;;;;;21.30;2.75;;;;;;;5.21;100.00;100538.94;5065420;28;20048;-72
2021/10/22 00:39:20;;;;;;;19.58;2.80;;;;;;;5.20;100.00;100539.06;5073907;28;20395;-73
2021/10/22 00:41:47;;;;;;;17.40;1.75;;;;;;;5.22;100.00;100537.19;5066788;28;20598;-71
2021/10/22 00:44:12;;;;;;;12.98;2.22;;;;;;;5.21;100.00;100543.31;5048984;28;20393;-72
2021/10/22 00:46:41;;;;;;;21.60;2.30;;;;;;;5.30;100.00;100534.00;5049685;28;20032;-73
2021/10/22 00:49:11;;;;;;;22.27;2.75;;;;;;;5.35;100.00;100531.84;5066444;28;20066;-73
2021/10/22 00:51:38;;;;;;;15.07;2.25;;;;;;;5.34;100.00;100531.03;5066993;28;20048;-72
2021/10/22 00:54:05;;;;;;;17.15;2.15;;;;;;;5.34;100.00;100525.00;5047617;28;20560;-73
2021/10/22 00:56:32;;;;;;;13.70;1.88;;;;;;;5.26;100.00;100528.19;5065597;28;20040;-73
2021/10/22 00:58:58;;;;;;;12.45;1.95;;;;;;;5.23;100.00;100521.44;5065549;28;20028;-72
2021/10/22 01:01:23;;;;;;;20.73;1.88;;;;;;;5.15;100.00;100535.97;5046165;28;20045;-73
2021/10/22 01:03:49;;;;;;;21.30;2.25;;;;;;;5.12;100.00;100538.81;5074384;28;20032;-72
2021/10/22 01:06:15;;;;;;;18.45;1.98;;;;;;;5.06;100.00;100527.91;5048331;28;20040;-72
2021/10/22 01:08:41;;;;;;;21.52;1.70;;;;;;;5.11;100.00;100539.75;5048410;28;20032;-72
2021/10/22 01:11:09;;;;;;;17.85;2.50;;;;;;;5.15;100.00;100533.38;5049517;28;20049;-72
2021/10/22 01:13:36;;;;;;;13.68;1.83;;;;;;;5.13;100.00;100530.91;5054908;28;20505;-72
2021/10/22 01:16:01;;;;;;;18.13;2.10;;;;;;;5.15;100.00;100534.22;5067519;28;20041;-73
2021/10/22 01:18:27;;;;;;;11.02;2.05;;;;;;;5.16;100.00;100532.44;5066216;28;20035;-73
2021/10/22 01:21:01;;;;;;;11.88;2.08;;;;;;;5.26;100.00;100546.41;5049262;28;20032;-73
2021/10/22 01:23:27;;;;;;;14.05;2.38;;;;;;;5.23;100.00;100546.63;5066621;28;20036;-72
2021/10/22 01:25:52;;;;;;;13.20;1.70;;;;;;;5.19;100.00;100540.81;5065393;28;20044;-72
2021/10/22 01:28:20;;;;;;;15.60;2.08;;;;;;;5.22;100.00;100548.41;5048435;28;20040;-73
2021/10/22 01:30:46;;;;;;;15.52;2.00;;;;;;;5.24;100.00;100554.31;5049006;28;20075;-72
2021/10/22 01:33:12;;;;;;;14.35;2.03;;;;;;;5.23;100.00;100555.25;5066115;28;20048;-72
2021/10/22 01:35:38;;;;;;;12.00;2.30;;;;;;;5.26;100.00;100536.00;5045491;28;20808;-72
2021/10/22 01:38:04;;;;;;;13.80;1.73;;;;;;;5.28;100.00;100546.28;5056379;28;20050;-72
2021/10/22 01:40:30;;;;;;;12.95;1.52;;;;;;;5.23;100.00;100537.03;5065205;28;20036;-73
2021/10/22 01:42:56;;;;;;;14.02;2.20;;;;;;;5.24;100.00;100543.09;5048788;28;20036;-72
2021/10/22 01:45:23;;;;;;;10.50;1.83;;;;;;;5.16;100.00;100538.47;5065495;28;20397;-73
2021/10/22 01:47:49;;;;;;;13.85;2.10;;;;;;;5.21;100.00;100536.34;5065629;28;20048;-74
2021/10/22 01:50:15;;;;;;;15.77;1.73;;;;;;;5.23;100.00;100526.63;5069105;28;20047;-72
2021/10/22 01:52:41;;;;;;;10.05;1.67;;;;;;;5.19;100.00;100542.59;5068555;28;20101;-72
2021/10/22 01:55:08;;;;;;;16.30;1.60;;;;;;;5.22;100.00;100534.59;5067081;28;20131;-72
2021/10/22 01:57:34;;;;;;;11.43;1.70;;;;;;;5.17;100.00;100536.69;5081134;28;20028;-72
2021/10/22 01:59:59;;;;;;;18.85;1.98;;;;;;;5.19;100.00;100529.59;5061656;28;20191;-72
2021/10/22 02:02:25;;;;;;;13.32;1.77;;;;;;;5.14;100.00;100531.72;5066162;28;20039;-72
2021/10/22 02:04:50;;;;;;;12.68;1.85;;;;;;;5.11;100.00;100531.97;5032387;28;20036;-73
2021/10/22 02:07:16;;;;;;;11.63;1.45;;;;;;;5.15;100.00;100536.81;5065404;28;20044;-72
2021/10/22 02:09:41;;;;;;;16.60;1.58;;;;;;;5.11;100.00;100529.38;5068764;28;20029;-73
2021/10/22 02:12:07;;;;;;;11.45;1.50;;;;;;;5.12;100.00;100531.81;5082907;28;20676;-72
2021/10/22 02:14:33;;;;;;;13.55;1.42;;;;;;;5.16;100.00;100528.06;5066837;28;20040;-72
2021/10/22 02:16:58;;;;;;;10.68;1.50;;;;;;;5.13;100.00;100520.50;5066740;28;20039;-72
2021/10/22 02:19:24;;;;;;;10.75;1.58;;;;;;;5.11;100.00;100525.00;5064380;28;20055;-73
2021/10/22 02:21:49;;;;;;;13.32;1.30;;;;;;;5.11;100.00;100517.19;5066164;28;20111;-72
2021/10/22 02:24:15;;;;;;;11.90;1.30;;;;;;;5.22;100.00;100521.59;5030537;28;20086;-72
2021/10/22 02:26:40;;;;;;;14.35;1.48;;;;;;;5.25;100.00;100521.31;5078411;28;20107;-73
2021/10/22 02:29:06;;;;;;;13.25;1.73;;;;;;;5.28;100.00;100526.31;5049091;28;20044;-72
2021/10/22 02:31:31;;;;;;;15.10;1.85;;;;;;;5.29;100.00;100516.72;5082782;28;20032;-72
2021/10/22 02:33:57;;;;;;;12.90;1.50;;;;;;;5.35;100.00;100524.03;5061576;28;20039;-72
2021/10/22 02:36:22;;;;;;;14.13;1.38;;;;;;;5.40;100.00;100514.13;5060723;28;20062;-72
2021/10/22 02:38:51;;;;;;;10.88;1.55;;;;;;;5.34;100.00;100510.22;5066214;28;20029;-73
2021/10/22 02:41:16;;;;;;;12.98;1.73;;;;;;;5.38;100.00;100511.63;5065972;28;20036;-72
2021/10/22 02:43:45;;;;;;;12.85;1.75;;;;;;;5.35;100.00;100513.63;5066835;28;20111;-72
2021/10/22 02:46:13;;;;;;;16.42;1.95;;;;;;;5.32;100.00;100519.09;5071260;28;20108;-73
2021/10/22 02:48:38;;;;;;;12.38;1.50;;;;;;;5.24;100.00;100509.28;5065789;28;20036;-73
2021/10/22 02:51:04;;;;;;;12.38;1.70;;;;;;;5.16;100.00;100514.22;5033121;28;20043;-73
2021/10/22 02:53:29;;;;;;;13.00;1.55;;;;;;;5.07;100.00;100511.38;5058555;28;20470;-73
2021/10/22 02:55:55;;;;;;;9.82;1.58;;;;;;;5.21;100.00;100506.91;5067676;28;20037;-73
2021/10/22 02:58:20;;;;;;;13.32;1.70;;;;;;;5.23;100.00;100505.00;5049858;28;20032;-73
2021/10/22 03:00:48;;;;;;;10.70;1.67;;;;;;;5.28;100.00;100508.09;5066583;28;20032;-73
2021/10/22 03:03:13;;;;;;;13.63;1.98;;;;;;;5.28;100.00;100507.28;5029659;28;20044;-73
2021/10/22 03:05:41;;;;;;;8.25;1.35;;;;;;;5.32;100.00;100508.69;5053413;28;20393;-73
2021/10/22 03:08:07;;;;;;;12.75;2.08;;;;;;;5.32;100.00;100496.50;5066825;28;20035;-73
2021/10/22 03:10:32;;;;;;;13.98;1.85;;;;;;;5.29;100.00;100488.09;5067559;28;20032;-73
2021/10/22 03:12:58;;;;;;;18.38;2.22;;;;;;;5.27;100.00;100485.63;5066606;28;20052;-73
2021/10/22 03:15:24;;;;;;;16.55;2.60;;;;;;;5.15;100.00;100486.59;5072611;28;20063;-73
2021/10/22 03:17:50;;;;;;;16.63;2.33;;;;;;;5.14;100.00;100483.16;5057051;28;20037;-73
2021/10/22 03:20:15;;;;;;;12.82;1.67;;;;;;;5.05;100.00;100478.66;5070615;28;20032;-73
2021/10/22 03:22:41;;;;;;;13.35;1.75;;;;;;;5.09;100.00;100479.25;5066744;28;20036;-73
2021/10/22 03:25:07;;;;;;;7.35;1.60;;;;;;;5.16;100.00;100470.03;5066751;28;20036;-73
2021/10/22 03:27:34;;;;;;;19.77;2.20;;;;;;;5.18;100.00;100465.53;5067062;28;20039;-73
2021/10/22 03:30:00;;;;;;;15.60;1.92;;;;;;;5.23;100.00;100472.03;5065541;28;20528;-73
2021/10/22 03:32:26;;;;;;;12.65;1.70;;;;;;;5.27;100.00;100459.63;5068448;28;20109;-73
2021/10/22 03:34:52;;;;;;;11.70;1.77;;;;;;;5.32;100.00;100472.28;5062061;28;20050;-73
2021/10/22 03:37:18;;;;;;;14.95;1.67;;;;;;;5.37;100.00;100455.38;5069551;28;20028;-74
2021/10/22 03:39:46;;;;;;;11.45;1.52;;;;;;;5.44;100.00;100461.75;5062912;28;20029;-73
2021/10/22 03:42:11;;;;;;;19.38;2.28;;;;;;;5.38;100.00;100457.00;5051648;28;20031;-73
2021/10/22 03:44:37;;;;;;;11.15;1.70;;;;;;;5.47;100.00;100461.50;5049133;28;20196;-73
2021/10/22 03:47:04;;;;;;;15.40;1.88;;;;;;;5.43;100.00;100452.28;5070246;28;20474;-73
2021/10/22 03:49:30;;;;;;;15.20;1.80;;;;;;;5.36;100.00;100453.69;5068588;28;20067;-73
2021/10/22 03:51:55;;;;;;;14.55;1.52;;;;;;;5.41;100.00;100448.97;5068631;28;20060;-73
2021/10/22 03:54:21;;;;;;;12.63;1.60;;;;;;;5.37;100.00;100452.78;5068402;28;20119;-73
2021/10/22 03:56:46;;;;;;;13.15;1.88;;;;;;;5.37;100.00;100450.16;5052457;28;20048;-73
2021/10/22 03:59:15;;;;;;;17.48;1.92;;;;;;;5.38;100.00;100451.00;5068637;28;20095;-74
2021/10/22 04:01:41;;;;;;;18.35;1.73;;;;;;;5.38;100.00;100437.97;5064966;28;20040;-73
2021/10/22 04:04:06;;;;;;;10.70;1.60;;;;;;;5.35;100.00;100441.66;5051726;28;20071;-73
2021/10/22 04:06:33;;;;;;;17.95;1.85;;;;;;;5.39;100.00;100444.84;5050767;28;20040;-74
2021/10/22 04:08:59;;;;;;;14.20;1.50;;;;;;;5.41;100.00;100429.94;5068605;28;20052;-74
2021/10/22 04:11:24;;;;;;;17.55;1.92;;;;;;;5.45;100.00;100439.16;5068643;28;20821;-73
2021/10/22 04:13:50;;;;;;;14.75;1.88;;;;;;;5.51;100.00;100430.03;5051823;28;20051;-73
2021/10/22 04:16:16;;;;;;;19.00;2.00;;;;;;;5.48;100.00;100420.69;5067641;28;20036;-73
2021/10/22 04:18:41;;;;;;;15.02;2.05;;;;;;;5.41;100.00;100422.16;5068366;28;20040;-73
2021/10/22 04:21:07;;;;;;;18.42;1.80;;;;;;;5.47;100.00;100426.84;5066928;28;20054;-74
2021/10/22 04:23:32;;;;;;;11.13;1.70;;;;;;;5.46;100.00;100433.84;5075878;28;20289;-74
2021/10/22 04:25:58;;;;;;;13.43;2.05;;;;;;;5.49;100.00;100429.34;5067917;28;20039;-73
2021/10/22 04:28:23;;;;;;;13.98;1.85;;;;;;;5.47;100.00;100437.25;5067912;28;20115;-73
2021/10/22 04:30:49;;;;;;;13.27;1.60;;;;;;;5.56;100.00;100422.72;5068209;28;20592;-73
2021/10/22 04:33:15;;;;;;;17.95;1.60;;;;;;;5.53;100.00;100418.56;5067476;28;20039;-73
2021/10/22 04:35:40;;;;;;;16.95;2.30;;;;;;;5.56;100.00;100425.31;5052163;28;20135;-73
2021/10/22 04:40:48;;;;;;;11.90;1.90;;;;;;;5.52;100.00;100397.88;5085495;28;20036;-74
2021/10/22 04:43:17;;;;;;;12.52;1.77;;;;;;;5.55;100.00;100403.66;5072988;28;20127;-73
2021/10/22 04:45:46;;;;;;;14.57;2.42;;;;;;;5.58;100.00;100397.41;5068644;28;20037;-74
2021/10/22 04:48:13;;;;;;;13.27;2.10;;;;;;;5.54;100.00;100411.56;5051010;28;20055;-74
2021/10/22 04:50:45;;;;;;;13.90;2.08;;;;;;;5.51;100.00;100397.03;5070943;28;20448;-72
2021/10/22 04:53:11;;;;;;;14.05;2.45;;;;;;;5.58;100.00;100393.00;5067365;28;20127;-74
2021/10/22 04:55:40;;;;;;;10.52;1.92;;;;;;;5.63;100.00;100392.63;5033908;28;20100;-73
2021/10/22 04:58:07;;;;;;;21.08;2.42;;;;;;;5.66;100.00;100388.00;5050094;28;20044;-74
2021/10/22 05:00:32;;;;;;;14.70;2.03;;;;;;;5.69;100.00;100384.34;5063438;28;20142;-74
2021/10/22 05:02:58;;;;;;;14.10;2.47;;;;;;;5.69;100.00;100366.13;5068462;28;20099;-74
2021/10/22 05:05:23;;;;;;;19.88;2.00;;;;;;;5.69;100.00;100366.13;5066597;28;20408;-74
2021/10/22 05:07:49;;;;;;;12.85;2.42;;;;;;;5.69;100.00;100368.75;5081028;28;20647;-73
2021/10/22 05:10:14;;;;;;;12.00;2.13;;;;;;;5.68;100.00;100359.25;5067071;28;20181;-74
2021/10/22 05:12:40;;;;;;;16.30;2.05;;;;;;;5.71;100.00;100347.78;5067606;28;20052;-73
2021/10/22 05:15:07;;;;;;;18.35;2.33;;;;;;;5.61;100.00;100356.34;5073778;28;20028;-73
2021/10/22 05:17:35;;;;;;;10.05;1.45;;;;;;;5.69;100.00;100347.91;5050877;28;20040;-73
2021/10/22 05:20:03;;;;;;;12.38;1.95;;;;;;;5.67;100.00;100347.22;5067346;28;20028;-74
2021/10/22 05:22:29;;;;;;;16.73;2.00;;;;;;;5.66;100.00;100348.97;5046057;28;20068;-73
2021/10/22 05:24:55;;;;;;;17.13;2.53;;;;;;;5.64;100.00;100327.47;5043606;28;20619;-73
2021/10/22 05:27:20;;;;;;;16.48;1.75;;;;;;;5.67;100.00;100336.81;5066198;28;20028;-73
2021/10/22 05:29:46;;;;;;;15.63;2.30;;;;;;;5.64;100.00;100326.66;5084890;28;20509;-72
2021/10/22 05:32:11;;;;;;;15.18;2.05;;;;;;;5.62;100.00;100311.16;5067407;28;20071;-73
2021/10/22 05:34:37;;;;;;;12.68;2.13;;;;;;;5.65;100.00;100312.66;5066260;28;20127;-73
2021/10/22 05:37:03;;;;;;;11.93;2.15;;;;;;;5.60;100.00;100309.63;5071220;28;20043;-73
2021/10/22 05:39:29;;;;;;;13.85;1.95;;;;;;;5.66;100.00;100304.75;5067831;28;20078;-74
2021/10/22 05:41:55;;;;;;;15.35;2.33;;;;;;;5.69;100.00;100305.44;5057236;28;20044;-74
2021/10/22 05:44:21;;;;;;;20.83;2.50;;;;;;;5.64;100.00;100300.63;5033183;28;20098;-73
2021/10/22 05:46:52;;;;;;;12.98;1.83;;;;;;;5.66;100.00;100296.13;5065009;28;20048;-74
2021/10/22 05:49:19;;;;;;;15.45;2.03;;;;;;;5.68;100.00;100301.19;5067299;28;20051;-73
2021/10/22 05:51:44;;;;;;;13.45;2.50;;;;;;;5.67;100.00;100287.38;5067213;28;20115;-73
2021/10/22 05:54:10;;;;;;;14.93;2.38;;;;;;;5.63;100.00;100305.00;5047328;28;20582;-73
2021/10/22 05:56:35;;;;;;;21.85;2.22;;;;;;;5.58;100.00;100306.34;5065077;28;20028;-73
2021/10/22 05:59:01;;;;;;;22.95;2.30;;;;;;;5.61;100.00;100286.09;5072772;28;20032;-73
2021/10/22 06:01:26;;;;;;;14.38;2.20;;;;;;;5.61;100.00;100306.06;5049726;28;20044;-73
2021/10/22 06:03:52;;;;;;;16.17;1.98;;;;;;;5.62;100.00;100299.94;5066822;28;20040;-73
2021/10/22 06:06:18;;;;;;;15.82;2.42;;;;;;;5.63;100.00;100314.56;5066457;28;20033;-73
2021/10/22 06:08:44;;;;;;;14.05;1.98;;;;;;;5.64;100.00;100303.22;5029539;28;20036;-74
2021/10/22 06:11:11;;;;;;;17.90;2.55;;;;;;;5.60;100.00;100307.03;5055657;28;20123;-73
2021/10/22 06:13:38;;;;;;;12.23;1.90;;;;;;;5.60;100.00;100300.03;5063338;28;20766;-74
2021/10/22 06:16:04;;;;;;;12.07;2.00;;;;;;;5.60;100.00;100304.44;5050753;28;20107;-73
2021/10/22 06:18:30;;;;;;;12.05;2.17;;;;;;;5.61;100.00;100306.06;5065424;28;20059;-74
2021/10/22 06:21:01;;;;;;;12.95;2.05;;;;;;;5.67;100.00;100305.59;5074641;28;20115;-73
2021/10/22 06:26:11;;;;;;;19.38;2.40;;;;;;;5.66;100.00;100307.34;5064062;28;20055;-74
2021/10/22 06:28:37;;;;;;;11.98;2.00;;;;;;;5.79;100.00;100298.53;5070458;28;20024;-74
2021/10/22 06:31:02;;;;;;;17.25;2.75;;;;;;;5.84;100.00;100285.97;5065115;28;20055;-73
2021/10/22 06:33:30;;;;;;;17.73;2.33;;;;;;;5.87;100.00;100290.09;5049861;28;20142;-73
2021/10/22 06:35:56;;;;;;;13.45;2.28;;;;;;;5.91;100.00;100286.28;5049091;28;20124;-74
2021/10/22 06:38:22;;;;;;;14.02;2.40;;;;;;;5.90;100.00;100289.84;5065885;28;20074;-73
2021/10/22 06:40:47;;;;;;;17.27;2.10;;;;;;;5.85;100.00;100288.44;5027774;28;20033;-74
2021/10/22 06:43:17;;;;;;;11.93;2.15;;;;;;;5.87;100.00;100301.31;5065556;28;20063;-74
2021/10/22 06:45:42;;;;;;;18.75;2.60;;;;;;;5.87;100.00;100293.50;5059634;28;20043;-73
2021/10/22 06:48:08;;;;;;;17.38;2.47;;;;;;;5.86;100.00;100278.88;5066393;28;20519;-74
2021/10/22 06:50:34;;;;;;;13.30;2.38;;;;;;;5.90;100.00;100295.06;5049037;28;20129;-73
2021/10/22 06:53:00;;;;;;;18.70;2.55;;;;;;;5.96;100.00;100287.59;5065512;28;20036;-73
2021/10/22 06:55:25;;;;;;;13.90;2.35;;;;;;;5.95;100.00;100295.47;5059668;28;20085;-73
2021/10/22 06:57:51;;;;;;;19.38;2.25;;;;;;;6.03;100.00;100287.91;5050661;28;20067;-73
2021/10/22 07:00:16;;;;;;;17.85;2.35;;;;;;;6.06;100.00;100295.44;5066602;28;20111;-73
2021/10/22 07:02:53;;;;;;;14.68;2.40;;;;;;;6.08;100.00;100290.13;5080008;28;20035;-74
2021/10/22 07:07:14;;;;;;;16.13;2.55;;;;;;;6.10;100.00;100286.41;5066762;28;20028;-74
2021/10/22 07:08:05;;;;;;;15.70;2.10;;;;;;;6.17;100.00;100289.34;5054486;28;20071;-73
2021/10/22 07:10:32;;;;;;;14.68;1.88;;;;;;;6.27;100.00;100289.38;5069617;28;20135;-74
2021/10/22 07:13:01;;;;;;;16.58;2.47;;;;;;;6.47;100.00;100298.94;5069382;28;20493;-73
2021/10/22 07:15:28;;;;;;;17.85;2.20;;;;;;;6.57;100.00;100280.75;5070935;28;20545;-74
2021/10/22 07:17:56;;;;;;;13.95;2.17;;;;;;;6.62;100.00;100281.19;5052351;28;20041;-74
2021/10/22 07:20:23;;;;;;;11.65;1.92;;;;;;;6.74;100.00;100282.75;5053510;28;20108;-74
2021/10/22 07:22:53;;;;;;;7.97;1.60;;;;;;;6.87;100.00;100282.47;5051033;28;20434;-73
2021/10/22 07:25:21;;;;;;;16.38;2.17;;;;;;;6.95;100.00;100285.25;5052350;28;20135;-73
2021/10/22 07:27:48;;;;;;;13.57;1.77;;;;;;;7.12;100.00;100282.94;5088045;28;20048;-73
2021/10/22 07:30:14;;;;;;;20.33;2.22;;;;;;;7.12;100.00;100278.56;5040638;28;20131;-72
2021/10/22 07:32:40;;;;;;;12.73;1.80;;;;;;;7.12;100.00;100264.66;5071321;28;20098;-73
2021/10/22 07:35:08;;;;;;;11.07;1.88;;;;;;;7.14;100.00;100266.22;5071367;28;20041;-74
2021/10/22 07:37:34;;;;;;;12.20;1.95;;;;;;;7.18;100.00;100256.31;5049957;28;20127;-74
2021/10/22 07:40:01;;;;;;;10.43;2.10;;;;;;;7.22;100.00;100253.28;5048240;28;20106;-73
2021/10/22 07:42:27;;;;;;;11.55;1.73;;;;;;;7.30;100.00;100263.03;5068820;28;20032;-73
2021/10/22 07:44:54;;;;;;;16.73;2.10;;;;;;;7.36;100.00;100249.44;5056521;28;20060;-74
2021/10/22 07:47:22;;;;;;;10.95;2.30;;;;;;;7.34;100.00;100251.38;5084476;28;20107;-74
2021/10/22 07:49:49;;;;;;;18.20;1.98;;;;;;;7.46;100.00;100259.06;5106379;28;20513;-74
2021/10/22 07:52:20;;;;;;;14.80;1.77;;;;;;;7.74;100.00;100245.19;5080940;28;20040;-73
2021/10/22 07:54:45;;;;;;;16.13;2.45;;;;;;;7.71;100.00;100255.88;5070079;28;20036;-73
2021/10/22 07:57:12;;;;;;;14.55;2.20;;;;;;;7.51;100.00;100254.25;5068469;28;20046;-74
2021/10/22 07:59:38;;;;;;;13.25;1.95;;;;;;;7.38;100.00;100260.59;5067272;28;20390;-74
2021/10/22 08:02:06;;;;;;;16.27;2.30;;;;;;;7.44;100.00;100243.56;5072494;28;20458;-73
2021/10/22 08:04:31;;;;;;;11.95;2.22;;;;;;;7.38;100.00;100255.38;5068684;28;20032;-74
2021/10/22 08:06:57;;;;;;;16.67;2.10;;;;;;;7.31;100.00;100263.84;5069339;28;20085;-73
2021/10/22 08:09:22;;;;;;;11.75;2.60;;;;;;;7.29;100.00;100291.88;5069708;28;20113;-73
2021/10/22 08:11:48;;;;;;;12.05;2.38;;;;;;;7.15;100.00;100265.22;5067679;28;20026;-73
2021/10/22 08:14:14;;;;;;;17.17;2.33;;;;;;;7.02;100.00;100290.75;5068178;28;20815;-73
2021/10/22 08:16:39;;;;;;;15.45;2.63;;;;;;;6.90;100.00;100266.56;5066838;28;20397;-73
2021/10/22 08:19:05;;;;;;;13.02;2.50;;;;;;;6.87;100.00;100271.22;5067771;28;20029;-73
2021/10/22 08:21:56;;;;;;;15.45;2.72;;;;;;;6.89;100.00;100269.31;5051969;28;20036;-73
2021/10/22 08:24:19;;;;;;;15.90;3.15;;;;;;;6.89;100.00;100264.91;5068498;28;20489;-74
2021/10/22 08:26:44;;;;;;;18.77;2.60;;;;;;;7.04;100.00;100270.56;5067355;28;20036;-73
2021/10/22 08:29:10;;;;;;;13.35;2.17;;;;;;;7.15;100.00;100267.03;5084986;28;20032;-74
2021/10/22 08:31:36;;;;;;;16.98;2.40;;;;;;;7.21;100.00;100271.69;5031647;28;20457;-73
2021/10/22 08:34:02;;;;;;;21.85;2.65;;;;;;;7.28;100.00;100277.19;5069028;28;20044;-73
2021/10/22 08:36:27;;;;;;;11.20;2.38;;;;;;;7.28;100.00;100274.59;5067230;28;20055;-75
2021/10/22 08:38:52;;;;;;;19.55;2.90;;;;;;;7.33;100.00;100249.75;5068543;28;20077;-73
2021/10/22 08:41:22;;;;;;;15.50;2.00;;;;;;;7.41;100.00;100264.69;5068600;28;20044;-73
2021/10/22 08:43:49;;;;;;;15.77;2.00;;;;;;;7.59;100.00;100256.97;5067633;28;20024;-73
2021/10/22 08:46:17;;;;;;;13.55;2.35;;;;;;;7.73;100.00;100255.75;5068895;28;20056;-70
2021/10/22 08:48:43;;;;;;;9.65;1.75;;;;;;;7.97;100.00;100252.69;5084745;28;20036;-73
2021/10/22 08:51:09;;;;;;;14.10;2.30;;;;;;;8.30;100.00;100256.53;5073716;28;20673;-73
2021/10/22 08:53:36;;;;;;;14.38;2.20;;;;;;;8.54;100.00;100250.84;5084906;28;20636;-75
2021/10/22 08:56:03;;;;;;;15.38;2.28;;;;;;;8.76;100.00;100246.19;5067713;28;20032;-74
2021/10/22 08:58:32;;;;;;;11.90;2.22;;;;;;;8.81;100.00;100224.81;5073005;28;20040;-74
2021/10/22 09:00:58;;;;;;;15.48;2.47;;;;;;;8.93;100.00;100231.50;5067520;28;20060;-73
2021/10/22 09:03:24;;;;;;;11.90;1.90;;;;;;;9.21;100.00;100234.03;5068079;28;20039;-74
2021/10/22 09:06:02;;;;;;;6.90;1.63;;;;;;;9.34;99.71;100245.78;5067136;28;20062;-75
2021/10/22 09:08:39;;;;;;;13.88;1.85;;;;;;;9.22;100.00;100246.16;5067243;28;20504;-72
2021/10/22 09:11:17;;;;;;;6.97;1.60;;;;;;;9.13;100.00;100242.63;5064847;28;20135;-74
2021/10/22 09:13:43;;;;;;;15.38;2.50;;;;;;;8.77;100.00;100261.72;5038887;28;20079;-74
2021/10/22 09:16:22;;;;;;;13.45;1.77;;;;;;;8.46;100.00;100239.47;5062760;28;20029;-74
2021/10/22 09:18:48;;;;;;;13.65;2.33;;;;;;;8.14;100.00;100258.97;5068652;28;20032;-73
2021/10/22 09:21:23;;;;;;;9.90;2.03;;;;;;;7.93;100.00;100266.97;5067219;28;20040;-73
2021/10/22 09:23:49;;;;;;;12.75;1.70;;;;;;;7.77;100.00;100264.94;5050713;28;20044;-73
2021/10/22 09:26:22;;;;;;;14.88;2.00;;;;;;;7.58;100.00;100271.81;5067861;28;20638;-73
2021/10/22 09:28:48;;;;;;;14.60;2.50;;;;;;;7.45;100.00;100283.53;5066277;28;20562;-73
2021/10/22 09:31:17;;;;;;;14.43;2.33;;;;;;;7.25;100.00;100274.84;5049322;28;20048;-73
2021/10/22 09:33:59;;;;;;;17.15;2.55;;;;;;;7.17;100.00;100286.78;5067322;28;20048;-73
2021/10/22 09:36:35;;;;;;;20.52;2.17;;;;;;;7.08;100.00;100295.41;5069419;28;20126;-73
2021/10/22 09:39:13;;;;;;;12.90;2.97;;;;;;;7.03;100.00;100295.00;5063459;28;20207;-72
2021/10/22 09:41:46;;;;;;;18.25;2.25;;;;;;;7.10;100.00;100282.25;5059927;28;20465;-73
2021/10/22 09:44:38;;;;;;;16.30;2.90;;;;;;;7.05;100.00;100292.28;5066444;28;20630;-73
2021/10/22 09:47:04;;;;;;;20.70;2.50;;;;;;;7.08;100.00;100286.78;5051177;28;20165;-72
2021/10/22 09:49:31;;;;;;;13.93;2.20;;;;;;;7.12;100.00;100282.94;5046713;28;20489;-73
2021/10/22 09:51:57;;;;;;;13.48;2.42;;;;;;;7.11;100.00;100266.47;5059833;28;20308;-72
2021/10/22 09:54:33;;;;;;;13.85;2.65;;;;;;;7.16;100.00;100268.69;5051299;28;20531;-74
2021/10/22 09:57:05;;;;;;;17.15;2.45;;;;;;;7.22;100.00;100268.94;5064759;28;20066;-73
2021/10/22 09:59:32;;;;;;;20.80;2.97;;;;;;;7.16;100.00;100274.72;5066506;28;20032;-73
2021/10/22 10:01:59;;;;;;;13.55;2.40;;;;;;;7.17;100.00;100268.53;5067458;28;20044;-73
2021/10/22 10:04:31;;;;;;;15.23;2.28;;;;;;;7.19;100.00;100282.25;5067545;28;20043;-72
2021/10/22 10:06:58;;;;;;;15.73;2.25;;;;;;;7.14;100.00;100292.28;5049323;28;20063;-72
2021/10/22 10:09:27;;;;;;;10.15;1.55;;;;;;;7.08;100.00;100307.63;5067042;28;20052;-73
2021/10/22 10:11:55;;;;;;;13.93;1.67;;;;;;;6.99;100.00;100299.66;5066093;28;20045;-72
2021/10/22 10:14:27;;;;;;;11.43;1.30;;;;;;;6.87;100.00;100298.13;5064621;28;20075;-73
2021/10/22 10:16:53;;;;;;;7.90;1.03;;;;;;;6.76;100.00;100319.91;5065677;28;20133;-73
2021/10/22 10:19:29;;;;;;;9.20;1.38;;;;;;;6.77;100.00;100313.72;5082829;28;20107;-72
2021/10/22 10:22:00;;;;;;;8.95;1.23;;;;;;;6.76;100.00;100316.47;5049216;28;20059;-73
2021/10/22 10:24:51;;;;;;;8.43;1.20;;;;;;;6.76;100.00;100327.75;5066066;28;20042;-74
2021/10/22 10:27:26;;;;;;;11.20;1.67;;;;;;;6.79;100.00;100329.25;5079797;28;20028;-72
2021/10/22 10:29:53;;;;;;;6.82;1.10;;;;;;;6.91;100.00;100324.75;5074215;28;20032;-72
2021/10/22 10:32:23;;;;;;;8.25;1.52;;;;;;;6.92;100.00;100350.69;5065763;28;20036;-73
2021/10/22 10:34:49;;;;;;;8.85;1.33;;;;;;;6.93;100.00;100328.91;5064999;28;20537;-72
2021/10/22 10:37:28;;;;;;;9.23;1.23;;;;;;;6.91;100.00;100325.59;5075677;28;20047;-71
2021/10/22 10:39:56;;;;;;;5.53;1.20;;;;;;;6.88;100.00;100333.69;5066583;28;20059;-73
2021/10/22 10:42:29;;;;;;;8.57;1.42;;;;;;;6.89;100.00;100347.53;5069123;28;20585;-73
2021/10/22 10:45:21;;;;;;;11.43;1.40;;;;;;;6.87;100.00;100363.28;5076613;28;20666;-73
2021/10/22 10:47:55;;;;;;;11.05;1.83;;;;;;;6.83;100.00;100370.56;5068920;28;20280;-73
2021/10/22 10:53:43;;;;;;;10.07;1.42;;;;;;;6.77;100.00;100367.66;5065251;28;20112;-73
2021/10/22 10:56:31;;;;;;;7.35;1.25;;;;;;;6.74;100.00;100400.03;5065364;28;20039;-74
2021/10/22 10:58:57;;;;;;;5.93;1.33;;;;;;;6.76;100.00;100387.69;5075222;28;20112;-73
2021/10/22 11:01:27;;;;;;;7.47;1.33;;;;;;;6.74;100.00;100386.16;5033547;28;20135;-73
2021/10/22 11:03:54;;;;;;;6.65;0.98;;;;;;;6.79;100.00;100395.22;5064316;28;20040;-73
2021/10/22 11:06:47;;;;;;;4.75;0.85;;;;;;;6.80;100.00;100391.69;5051914;28;20040;-72
2021/10/22 11:09:43;;;;;;;7.15;0.82;;;;;;;6.85;100.00;100399.09;5075351;28;20024;-72
2021/10/22 11:12:08;;;;;;;4.63;0.73;;;;;;;6.87;100.00;100404.19;5066555;28;20501;-72
2021/10/22 11:14:42;;;;;;;5.38;1.00;;;;;;;6.92;100.00;100373.34;5070279;28;20035;-72
2021/10/22 11:17:09;;;;;;;5.88;1.00;;;;;;;6.98;100.00;100380.63;5068904;28;20078;-72
2021/10/22 11:19:38;;;;;;;7.00;1.10;;;;;;;6.97;100.00;100392.84;5067909;28;20040;-72
2021/10/22 11:22:18;;;;;;;3.95;1.00;;;;;;;7.06;100.00;100396.44;5069048;28;20031;-73
2021/10/22 11:24:44;;;;;;;2.88;0.85;;;;;;;7.10;100.00;100397.00;5036632;28;20146;-72
2021/10/22 11:27:18;;;;;;;8.13;1.08;;;;;;;7.16;100.00;100405.13;5069184;28;20044;-73
2021/10/22 11:29:50;;;;;;;4.60;0.82;;;;;;;7.31;100.00;100397.75;5069024;28;20056;-72